Аэропорт: Стригино. Нижний Новгород

ICAO: UWGG

METAR:
2021-10-23 01:30:00
UWGG 230130Z 22005MPS CAVOK 05/01 Q1002 R18L/090070 NOSIG
METAR:
2021-10-22 22:55:00
TAF UWGG 222255Z 2300/2324 22005G12MPS 9999 BKN025 TX09/2312Z TN04/2303Z TEMPO 2306/2318 23010G16MPS